Mburucuya, Argentina
Current Conditions -  °F | °C
As of 5:00 PM on Friday 28 Nov 2014 (Local Time) from SARC Reporting Station
Clear Clear  
Wind Chill: 91°   Ceiling: Unl
Heat Index: 92°   Visibility: 6mi
Dew Point: 63°   Wind: 5mph
Humidity: 38%   Direction: 70°ENE
Pressure: 29.77"   Gusts: NA
Location:  28.05°S, 58.23°W
Report Text: SARC 282000Z 07004KT 010V150 CAVOK 33/17 Q1008
Loading
Personal Weather Stations






























Interactive Weather Map New forecast layout! Learn more

10-Day Weather Forecast

Advertisements
Track Severe Weather on mobile